Time;durP1;ratioP1;P1;durP2;ratioP2;P2;SDS_P1;SDS_P2;PMS_P1;PMS_P2;Temp;Humidity;BMP_temperature;BMP_pressure;BME280_temperature;BME280_humidity;BME280_pressure;Samples;Min_cycle;Max_cycle;Signal;HPM_P1;HPM_P2
2023/10/06 00:00:42;;;;;;;12.17;4.33;;;14.50;99.90;;;;;;7321445;19;20194;-77
2023/10/06 00:03:14;;;;;;;15.17;4.70;;;14.40;99.90;;;;;;7294020;19;20192;-77
2023/10/06 00:05:44;;;;;;;14.60;4.60;;;14.40;99.90;;;;;;7311434;19;20189;-76
2023/10/06 00:08:15;;;;;;;15.10;4.53;;;14.40;99.90;;;;;;7302559;19;20181;-78
2023/10/06 00:10:54;;;;;;;10.57;4.90;;;14.50;99.90;;;;;;7305844;19;20383;-76
2023/10/06 00:13:37;;;;;;;14.03;4.80;;;14.50;99.90;;;;;;7306990;19;20209;-77
2023/10/06 00:16:07;;;;;;;11.80;4.50;;;14.40;99.90;;;;;;7302487;19;20210;-78
2023/10/06 00:18:38;;;;;;;15.93;5.13;;;14.40;99.90;;;;;;7304010;19;20185;-75
2023/10/06 00:21:06;;;;;;;13.20;4.97;;;14.40;99.90;;;;;;7303570;19;20197;-75
2023/10/06 00:23:38;;;;;;;13.20;4.60;;;14.40;99.90;;;;;;7305109;19;20183;-75
2023/10/06 00:26:10;;;;;;;12.07;4.50;;;14.40;99.90;;;;;;7305664;19;20188;-78
2023/10/06 00:28:40;;;;;;;14.67;5.00;;;14.40;99.90;;;;;;7293386;19;20204;-76
2023/10/06 00:31:12;;;;;;;14.93;5.20;;;14.30;99.90;;;;;;7324318;19;20189;-77
2023/10/06 00:33:45;;;;;;;13.57;4.20;;;14.30;99.90;;;;;;7289477;19;20209;-78
2023/10/06 00:36:17;;;;;;;15.97;4.77;;;14.40;99.90;;;;;;7303577;19;20185;-77
2023/10/06 00:38:51;;;;;;;14.13;4.40;;;14.50;99.90;;;;;;7305077;19;20194;-76
2023/10/06 00:41:21;;;;;;;14.83;4.57;;;14.40;99.90;;;;;;7305855;19;20506;-77
2023/10/06 00:43:49;;;;;;;12.03;4.53;;;14.40;99.90;;;;;;7304654;19;20187;-77
2023/10/06 00:46:21;;;;;;;12.43;4.60;;;14.50;99.90;;;;;;7303554;19;20201;-75
2023/10/06 00:48:59;;;;;;;11.33;4.10;;;14.60;99.90;;;;;;7306380;19;20194;-78
2023/10/06 00:51:34;;;;;;;17.50;4.70;;;14.60;99.90;;;;;;7303988;19;20194;-75
2023/10/06 00:54:09;;;;;;;11.90;4.10;;;14.50;99.90;;;;;;7305792;19;20202;-78
2023/10/06 00:56:35;;;;;;;13.40;4.80;;;14.50;99.90;;;;;;7305735;19;20213;-78
2023/10/06 00:59:07;;;;;;;12.97;4.23;;;14.50;99.90;;;;;;7299555;19;20187;-78
2023/10/06 01:01:36;;;;;;;13.37;3.87;;;14.50;99.90;;;;;;7301798;19;20646;-76
2023/10/06 01:04:11;;;;;;;10.20;4.23;;;14.60;99.90;;;;;;7303542;19;20177;-76
2023/10/06 01:06:41;;;;;;;15.53;4.27;;;14.60;99.90;;;;;;7299544;19;20185;-76
2023/10/06 01:11:45;;;;;;;15.43;4.10;;;14.80;99.90;;;;;;7302419;19;20199;-77
2023/10/06 01:14:20;;;;;;;12.27;3.87;;;14.80;99.90;;;;;;7300575;19;20193;-78
2023/10/06 01:16:51;;;;;;;15.37;4.23;;;14.80;99.90;;;;;;7304209;19;20210;-77
2023/10/06 01:19:33;;;;;;;14.97;4.00;;;14.80;99.90;;;;;;7297678;19;20194;-78
2023/10/06 01:22:14;;;;;;;13.50;4.20;;;14.70;99.90;;;;;;7300193;19;20196;-78
2023/10/06 01:24:41;;;;;;;10.83;4.00;;;14.80;99.90;;;;;;7287860;19;20190;-77
2023/10/06 01:27:14;;;;;;;11.30;3.80;;;14.70;99.90;;;;;;7303923;19;20230;-77
2023/10/06 01:29:42;;;;;;;11.33;3.70;;;14.80;99.90;;;;;;7304941;19;20229;-78
2023/10/06 01:32:09;;;;;;;15.03;4.13;;;14.80;99.90;;;;;;7317696;19;20252;-78
2023/10/06 01:34:38;;;;;;;12.07;4.27;;;14.80;99.90;;;;;;7324054;19;20211;-77
2023/10/06 01:37:23;;;;;;;11.50;3.83;;;14.80;99.90;;;;;;7302128;19;20191;-78
2023/10/06 01:39:52;;;;;;;10.03;3.73;;;14.90;99.90;;;;;;7201060;19;2004560;-76
2023/10/06 01:42:24;;;;;;;9.47;3.90;;;14.80;99.90;;;;;;7297082;19;20206;-78
2023/10/06 01:44:50;;;;;;;12.93;3.70;;;14.80;99.90;;;;;;7300247;19;20190;-77
2023/10/06 01:47:18;;;;;;;12.93;4.30;;;14.80;99.90;;;;;;7298220;19;20218;-78
2023/10/06 01:49:49;;;;;;;12.33;4.10;;;14.80;99.90;;;;;;7306990;19;20198;-76
2023/10/06 01:52:19;;;;;;;11.27;3.80;;;14.90;99.90;;;;;;7303243;19;20198;-76
2023/10/06 01:54:47;;;;;;;14.27;4.10;;;14.90;99.90;;;;;;7305633;19;20202;-77
2023/10/06 01:57:16;;;;;;;11.73;3.50;;;15.00;99.90;;;;;;7301377;19;20186;-78
2023/10/06 02:00:04;;;;;;;12.83;3.50;;;15.00;99.90;;;;;;7304487;19;20591;-77
2023/10/06 02:02:38;;;;;;;9.57;3.40;;;15.00;99.90;;;;;;7304626;19;20191;-78
2023/10/06 02:05:12;;;;;;;9.47;3.13;;;14.90;99.90;;;;;;7303572;19;20572;-77
2023/10/06 02:07:47;;;;;;;12.47;3.43;;;14.90;99.90;;;;;;7279839;19;20671;-77
2023/10/06 02:10:16;;;;;;;11.80;3.77;;;14.90;99.90;;;;;;7302054;19;20190;-77
2023/10/06 02:12:44;;;;;;;11.83;3.40;;;14.90;99.90;;;;;;7295825;19;20536;-78
2023/10/06 02:15:14;;;;;;;15.27;3.63;;;15.00;99.90;;;;;;7300371;19;20182;-76
2023/10/06 02:17:45;;;;;;;11.53;3.30;;;15.00;99.90;;;;;;7301937;19;20181;-78
2023/10/06 02:20:14;;;;;;;11.53;3.77;;;14.90;99.90;;;;;;7301407;19;20183;-78
2023/10/06 02:22:40;;;;;;;17.50;3.90;;;14.80;99.90;;;;;;7306984;19;20186;-76
2023/10/06 02:25:10;;;;;;;10.70;3.10;;;14.90;99.90;;;;;;7325516;19;20183;-76
2023/10/06 02:27:44;;;;;;;10.57;3.07;;;14.80;99.90;;;;;;7301405;19;20193;-78
2023/10/06 02:30:15;;;;;;;10.70;3.50;;;14.80;99.90;;;;;;7279745;19;20190;-76
2023/10/06 02:32:43;;;;;;;11.33;3.40;;;14.80;99.90;;;;;;7304435;19;20188;-76
2023/10/06 02:35:12;;;;;;;11.77;3.47;;;14.70;99.90;;;;;;7311685;19;20190;-76
2023/10/06 02:37:39;;;;;;;8.63;3.00;;;14.60;99.90;;;;;;7323413;19;20189;-75
2023/10/06 02:40:11;;;;;;;13.17;3.50;;;14.70;99.90;;;;;;7305065;19;20185;-77
2023/10/06 02:42:48;;;;;;;10.97;3.40;;;14.70;99.90;;;;;;7304101;19;20662;-77
2023/10/06 02:45:20;;;;;;;12.03;3.30;;;14.50;99.90;;;;;;7196818;19;2006199;-77
2023/10/06 02:47:51;;;;;;;10.17;3.20;;;14.50;99.90;;;;;;7302155;19;20189;-76
2023/10/06 02:50:21;;;;;;;9.93;3.60;;;14.50;99.90;;;;;;7299857;19;20198;-76
2023/10/06 02:52:53;;;;;;;9.13;3.40;;;14.50;99.90;;;;;;7299347;19;20183;-76
2023/10/06 02:55:20;;;;;;;10.00;3.33;;;14.60;99.90;;;;;;7298635;19;20188;-77
2023/10/06 02:57:55;;;;;;;11.83;4.00;;;14.60;99.90;;;;;;7299816;19;20196;-76
2023/10/06 03:02:57;;;;;;;11.70;3.73;;;14.60;99.90;;;;;;7301457;19;20194;-77
2023/10/06 03:05:32;;;;;;;11.20;3.70;;;14.50;99.90;;;;;;7302096;19;20200;-76
2023/10/06 03:08:08;;;;;;;10.23;3.67;;;14.50;99.90;;;;;;7303359;19;20230;-78
2023/10/06 03:10:45;;;;;;;8.97;3.63;;;14.50;99.90;;;;;;7305788;19;20210;-77
2023/10/06 03:13:24;;;;;;;12.37;3.57;;;14.50;99.90;;;;;;7281665;19;20683;-76
2023/10/06 03:15:50;;;;;;;16.97;3.80;;;14.60;99.90;;;;;;7300663;19;20195;-77
2023/10/06 03:18:19;;;;;;;14.57;3.97;;;14.50;99.90;;;;;;7298681;19;20273;-77
2023/10/06 03:20:47;;;;;;;11.63;4.03;;;14.60;99.90;;;;;;7302237;19;20221;-78
2023/10/06 03:23:38;;;;;;;13.50;4.10;;;14.60;99.90;;;;;;7300297;19;20193;-78
2023/10/06 03:26:11;;;;;;;16.57;4.60;;;14.70;99.90;;;;;;7303604;19;20524;-77
2023/10/06 03:28:37;;;;;;;12.70;4.10;;;14.70;99.90;;;;;;7299806;19;20192;-79
2023/10/06 03:31:24;;;;;;;15.03;4.10;;;14.80;99.90;;;;;;7300073;19;20187;-80
2023/10/06 03:33:54;;;;;;;15.00;4.20;;;14.70;99.90;;;;;;7198279;19;2004477;-78
2023/10/06 03:39:09;;;;;;;12.70;4.27;;;14.80;99.90;;;;;;7299891;19;20318;-78
2023/10/06 03:41:41;;;;;;;19.60;4.90;;;14.70;99.90;;;;;;7303983;19;20237;-77
2023/10/06 03:44:06;;;;;;;13.03;4.50;;;14.80;99.90;;;;;;7300936;19;20239;-78
2023/10/06 03:46:38;;;;;;;12.03;4.10;;;14.70;99.90;;;;;;7298977;19;20184;-78
2023/10/06 03:49:13;;;;;;;12.83;3.80;;;14.60;99.90;;;;;;7279694;19;20193;-76
2023/10/06 03:51:40;;;;;;;14.27;4.27;;;14.50;99.90;;;;;;7302324;19;20186;-78
2023/10/06 03:54:07;;;;;;;13.43;3.70;;;14.50;99.90;;;;;;7309560;19;20630;-78
2023/10/06 03:56:34;;;;;;;15.17;5.10;;;14.50;99.90;;;;;;7286216;19;20556;-78
2023/10/06 03:59:05;;;;;;;11.80;4.30;;;14.60;99.90;;;;;;7290716;19;20193;-76
2023/10/06 04:01:31;;;;;;;13.37;4.37;;;14.50;99.90;;;;;;7288791;19;20178;-78
2023/10/06 04:03:58;;;;;;;14.23;4.37;;;14.50;99.90;;;;;;7284835;19;20553;-76
2023/10/06 04:06:27;;;;;;;12.53;4.10;;;14.40;99.90;;;;;;7289949;19;20190;-76
2023/10/06 04:08:57;;;;;;;16.67;4.27;;;14.40;99.90;;;;;;7297404;19;20291;-79
2023/10/06 04:11:29;;;;;;;14.33;4.30;;;14.40;99.90;;;;;;7297125;19;20230;-78
2023/10/06 04:13:55;;;;;;;15.00;4.27;;;14.40;99.90;;;;;;7291956;19;20188;-79
2023/10/06 04:16:23;;;;;;;13.70;4.80;;;14.30;99.90;;;;;;7289742;19;20193;-76
2023/10/06 04:18:51;;;;;;;15.97;4.73;;;14.30;99.90;;;;;;7293476;19;20190;-79
2023/10/06 04:21:20;;;;;;;15.93;4.23;;;14.20;99.90;;;;;;7291291;19;20189;-76
2023/10/06 04:23:46;;;;;;;12.50;4.50;;;14.20;99.90;;;;;;7290550;19;20188;-79
2023/10/06 04:26:15;;;;;;;16.57;4.33;;;14.20;99.90;;;;;;7292175;19;20181;-76
2023/10/06 04:28:47;;;;;;;17.23;4.70;;;14.20;99.90;;;;;;7291515;19;20185;-78
2023/10/06 04:31:17;;;;;;;14.53;4.33;;;14.20;99.90;;;;;;7294250;19;20555;-79
2023/10/06 04:33:45;;;;;;;15.77;4.43;;;14.20;99.90;;;;;;7295649;19;20201;-78
2023/10/06 04:36:31;;;;;;;13.87;4.40;;;14.20;99.90;;;;;;7297892;19;20194;-78
2023/10/06 04:38:57;;;;;;;12.33;4.57;;;14.20;99.90;;;;;;7293250;19;20189;-77
2023/10/06 04:41:24;;;;;;;11.77;4.60;;;14.20;99.90;;;;;;7296693;19;20545;-78
2023/10/06 04:44:02;;;;;;;16.50;4.50;;;14.20;99.90;;;;;;7301438;19;20218;-78
2023/10/06 04:46:28;;;;;;;13.27;4.97;;;14.20;99.90;;;;;;7302263;19;20536;-78
2023/10/06 04:48:55;;;;;;;13.37;4.10;;;14.20;99.90;;;;;;7302364;19;20181;-76
2023/10/06 04:51:21;;;;;;;16.30;4.77;;;14.20;99.90;;;;;;7301345;19;20191;-76
2023/10/06 04:53:48;;;;;;;16.20;4.60;;;14.20;99.90;;;;;;7297599;19;20212;-76
2023/10/06 04:56:16;;;;;;;13.07;4.50;;;14.10;99.90;;;;;;7299124;19;20233;-80
2023/10/06 04:58:43;;;;;;;11.87;4.23;;;14.10;99.90;;;;;;7293643;19;20189;-76
2023/10/06 05:01:08;;;;;;;13.10;4.43;;;14.20;99.90;;;;;;7315502;19;20191;-76
2023/10/06 05:03:43;;;;;;;14.87;4.70;;;14.20;99.90;;;;;;7292058;19;20634;-76
2023/10/06 05:06:15;;;;;;;13.13;5.03;;;14.10;99.90;;;;;;7290285;19;20198;-76
2023/10/06 05:08:46;;;;;;;19.03;4.90;;;14.20;99.90;;;;;;7271979;19;20184;-76
2023/10/06 05:11:15;;;;;;;15.80;4.40;;;14.20;99.90;;;;;;7292677;19;20195;-76
2023/10/06 05:13:41;;;;;;;15.90;4.80;;;14.20;99.90;;;;;;7295026;19;20198;-75
2023/10/06 05:16:07;;;;;;;16.03;4.80;;;14.20;99.90;;;;;;7310604;19;20576;-76
2023/10/06 05:18:33;;;;;;;15.70;5.63;;;14.20;99.90;;;;;;7284915;19;20272;-76
2023/10/06 05:20:59;;;;;;;13.60;4.83;;;14.20;99.90;;;;;;7287394;19;20190;-78
2023/10/06 05:23:26;;;;;;;14.57;5.20;;;14.20;99.90;;;;;;7287901;19;20193;-77
2023/10/06 05:25:56;;;;;;;16.73;4.43;;;14.30;99.90;;;;;;7290748;19;20194;-76
2023/10/06 05:28:22;;;;;;;15.43;5.33;;;14.30;99.90;;;;;;7288387;19;20188;-77
2023/10/06 05:30:48;;;;;;;18.90;5.43;;;14.20;99.90;;;;;;7288033;19;20599;-77
2023/10/06 05:33:14;;;;;;;16.20;5.17;;;14.20;99.90;;;;;;7285765;19;20199;-76
2023/10/06 05:35:40;;;;;;;17.77;5.63;;;14.30;99.90;;;;;;7307618;19;20202;-76
2023/10/06 05:38:08;;;;;;;15.40;4.70;;;14.40;99.90;;;;;;7301653;19;20188;-77
2023/10/06 05:40:37;;;;;;;17.33;5.50;;;14.40;99.90;;;;;;7290261;19;20699;-76
2023/10/06 05:43:04;;;;;;;16.97;4.87;;;14.30;99.90;;;;;;7287922;19;20207;-76
2023/10/06 05:45:31;;;;;;;15.57;5.10;;;14.40;99.90;;;;;;7288531;19;20205;-76
2023/10/06 05:48:06;;;;;;;15.63;5.33;;;14.40;99.90;;;;;;7289369;19;20688;-76
2023/10/06 05:50:35;;;;;;;15.50;4.70;;;14.50;99.90;;;;;;7283276;19;20396;-88
2023/10/06 05:53:04;;;;;;;16.83;4.97;;;14.50;99.90;;;;;;7286020;19;20624;-88
2023/10/06 05:55:35;;;;;;;13.67;4.93;;;14.50;99.90;;;;;;7289381;19;20201;-89
2023/10/06 05:58:19;;;;;;;15.33;5.17;;;14.50;99.90;;;;;;7290342;19;20199;-89
2023/10/06 06:00:51;;;;;;;14.80;5.07;;;14.40;99.90;;;;;;7186820;19;2004687;-89
2023/10/06 06:03:20;;;;;;;14.37;5.40;;;14.50;99.90;;;;;;7287493;19;20207;-89
2023/10/06 06:05:54;;;;;;;17.17;5.17;;;14.50;99.90;;;;;;7288070;19;20194;-88
2023/10/06 06:08:22;;;;;;;18.30;5.63;;;14.40;99.90;;;;;;7287891;19;20583;-89
2023/10/06 06:10:48;;;;;;;13.17;5.00;;;14.30;99.90;;;;;;7289275;19;20207;-89
2023/10/06 06:13:15;;;;;;;18.77;5.30;;;14.30;99.90;;;;;;7275710;19;20211;-89
2023/10/06 06:15:41;;;;;;;15.03;5.03;;;14.40;99.90;;;;;;7299189;19;20210;-89
2023/10/06 06:18:08;;;;;;;16.47;5.67;;;14.50;99.90;;;;;;7301255;19;20647;-88
2023/10/06 06:20:38;;;;;;;15.17;5.67;;;14.60;99.90;;;;;;7290684;19;20194;-89
2023/10/06 06:23:08;;;;;;;14.07;5.30;;;14.60;99.90;;;;;;7286563;19;20189;-87
2023/10/06 06:25:36;;;;;;;16.10;5.33;;;14.70;99.90;;;;;;7289955;19;20293;-88
2023/10/06 06:28:02;;;;;;;16.83;5.17;;;14.60;99.90;;;;;;7286977;19;20276;-89
2023/10/06 06:30:29;;;;;;;12.63;5.00;;;14.60;99.90;;;;;;7288650;19;20201;-89
2023/10/06 06:32:55;;;;;;;15.37;5.27;;;14.60;99.90;;;;;;7287306;19;20209;-89
2023/10/06 06:35:35;;;;;;;16.13;4.87;;;14.70;99.90;;;;;;7290107;19;20203;-89
2023/10/06 06:38:05;;;;;;;14.17;5.20;;;14.80;99.90;;;;;;7289213;19;20202;-89
2023/10/06 06:40:33;;;;;;;14.03;4.90;;;14.80;99.90;;;;;;7277450;19;20185;-89
2023/10/06 06:43:00;;;;;;;15.70;5.50;;;15.00;99.90;;;;;;7287743;19;20196;-89
2023/10/06 06:45:28;;;;;;;15.10;5.43;;;15.10;99.90;;;;;;7288807;19;20194;-89
2023/10/06 06:47:54;;;;;;;16.03;5.37;;;15.30;99.90;;;;;;7288501;19;20203;-90
2023/10/06 06:50:23;;;;;;;14.83;5.10;;;15.60;99.90;;;;;;7294888;19;20205;-89
2023/10/06 06:52:54;;;;;;;15.27;5.13;;;15.90;99.90;;;;;;7287461;19;20290;-89
2023/10/06 06:55:23;;;;;;;16.60;5.27;;;16.70;99.90;;;;;;7278501;19;20193;-89
2023/10/06 06:58:18;;;;;;;14.47;4.93;;;17.40;99.90;;;;;;7308841;19;20222;-89
2023/10/06 07:00:47;;;;;;;14.13;4.60;;;18.50;99.90;;;;;;7285627;19;20188;-88
2023/10/06 07:03:21;;;;;;;17.00;5.40;;;18.80;99.90;;;;;;7287161;19;20195;-90
2023/10/06 07:05:47;;;;;;;15.93;4.80;;;19.40;99.90;;;;;;7286985;19;20187;-90
2023/10/06 07:08:15;;;;;;;15.47;5.43;;;20.40;99.90;;;;;;7290004;19;20211;-89
2023/10/06 07:10:46;;;;;;;12.70;4.63;;;20.00;99.90;;;;;;7303443;19;20189;-90
2023/10/06 07:13:52;;;;;;;15.83;4.97;;;20.50;99.90;;;;;;7284856;19;20196;-89
2023/10/06 07:16:21;;;;;;;17.90;4.63;;;20.90;99.90;;;;;;7286985;19;20213;-90
2023/10/06 07:18:47;;;;;;;16.90;5.30;;;20.20;99.90;;;;;;7287219;19;20191;-89
2023/10/06 07:21:13;;;;;;;14.37;4.57;;;19.80;99.90;;;;;;7285053;19;20286;-90
2023/10/06 07:23:39;;;;;;;15.03;4.63;;;19.50;99.90;;;;;;7329997;19;20199;-90
2023/10/06 07:26:15;;;;;;;16.60;5.17;;;19.20;99.90;;;;;;7288316;19;20582;-90
2023/10/06 07:28:52;;;;;;;16.97;5.03;;;18.90;99.90;;;;;;7285587;19;20196;-90
2023/10/06 07:31:19;;;;;;;16.00;5.20;;;18.70;99.90;;;;;;7238351;19;20192;-90
2023/10/06 07:33:57;;;;;;;15.87;4.70;;;18.50;99.90;;;;;;7284945;19;20196;-89
2023/10/06 07:36:40;;;;;;;14.63;5.17;;;18.40;99.90;;;;;;7287471;19;20201;-90
2023/10/06 07:39:15;;;;;;;18.73;5.33;;;18.30;99.90;;;;;;7280731;19;20196;-89
2023/10/06 07:41:49;;;;;;;14.43;5.00;;;18.10;99.90;;;;;;7285063;19;20193;-89
2023/10/06 07:44:46;;;;;;;14.60;4.90;;;18.10;99.90;;;;;;7264250;19;20392;-90
2023/10/06 07:47:10;;;;;;;15.47;5.17;;;18.10;99.90;;;;;;7304393;19;20197;-90
2023/10/06 07:49:37;;;;;;;15.80;4.37;;;18.10;99.90;;;;;;7295799;19;20203;-89
2023/10/06 07:52:04;;;;;;;15.80;4.53;;;18.10;99.90;;;;;;7307202;19;20232;-90
2023/10/06 07:54:36;;;;;;;17.83;4.50;;;18.00;99.90;;;;;;7286348;19;20209;-90
2023/10/06 07:57:08;;;;;;;14.60;4.60;;;17.90;99.90;;;;;;7286875;19;20182;-89
2023/10/06 07:59:39;;;;;;;13.17;4.50;;;17.60;99.90;;;;;;7284827;19;20195;-90
2023/10/06 08:02:06;;;;;;;19.10;5.13;;;17.70;99.90;;;;;;7286231;19;20201;-90
2023/10/06 08:04:32;;;;;;;12.70;4.60;;;17.80;99.90;;;;;;7286637;19;20183;-89
2023/10/06 08:07:00;;;;;;;16.50;5.33;;;18.00;99.90;;;;;;7285193;19;20184;-89
2023/10/06 08:09:26;;;;;;;15.67;4.63;;;18.10;99.90;;;;;;7286065;19;20200;-90
2023/10/06 08:11:54;;;;;;;12.97;4.70;;;18.30;99.90;;;;;;7285111;19;20185;-91
2023/10/06 08:14:20;;;;;;;17.73;4.93;;;18.50;99.90;;;;;;7287740;19;20193;-91
2023/10/06 08:16:49;;;;;;;15.27;4.50;;;18.60;99.90;;;;;;7275805;19;20289;-90
2023/10/06 08:19:15;;;;;;;14.53;4.80;;;18.50;99.90;;;;;;7291162;19;20188;-90
2023/10/06 08:21:41;;;;;;;19.97;5.63;;;18.70;99.90;;;;;;7312542;19;20177;-90
2023/10/06 08:24:08;;;;;;;15.17;4.63;;;18.90;99.90;;;;;;7302422;19;20305;-90
2023/10/06 08:26:36;;;;;;;15.57;4.90;;;19.10;99.90;;;;;;7293618;19;20185;-90
2023/10/06 08:29:06;;;;;;;13.40;4.47;;;19.20;99.90;;;;;;7292487;19;20193;-90
2023/10/06 08:31:32;;;;;;;17.93;5.03;;;19.30;99.90;;;;;;7292249;19;20218;-90
2023/10/06 08:34:05;;;;;;;15.53;4.87;;;19.60;99.90;;;;;;7293811;19;20252;-90
2023/10/06 08:36:31;;;;;;;14.60;5.10;;;19.70;99.90;;;;;;7295058;19;20213;-89
2023/10/06 08:38:58;;;;;;;15.77;5.00;;;19.70;99.90;;;;;;7291284;19;20197;-90
2023/10/06 08:41:35;;;;;;;15.33;5.10;;;19.70;99.90;;;;;;7293913;19;20244;-89
2023/10/06 08:44:03;;;;;;;14.43;5.33;;;19.70;99.90;;;;;;7293881;19;20226;-89
2023/10/06 08:46:33;;;;;;;15.33;5.37;;;19.50;99.90;;;;;;7293666;19;20224;-90
2023/10/06 08:48:59;;;;;;;14.70;4.93;;;19.50;99.90;;;;;;7294469;19;20220;-89
2023/10/06 08:51:30;;;;;;;15.57;4.53;;;19.40;99.90;;;;;;7292418;19;20194;-89
2023/10/06 08:53:57;;;;;;;16.03;4.77;;;19.50;99.90;;;;;;7292205;19;20196;-90
2023/10/06 08:56:23;;;;;;;19.13;4.60;;;19.80;99.90;;;;;;7292813;19;20203;-90
2023/10/06 08:58:51;;;;;;;17.30;4.77;;;20.10;99.90;;;;;;7293083;19;20190;-89
2023/10/06 09:01:18;;;;;;;16.33;4.50;;;20.30;99.90;;;;;;7292655;19;20235;-90
2023/10/06 09:03:46;;;;;;;13.67;4.20;;;20.50;99.90;;;;;;7293410;19;20183;-90
2023/10/06 09:06:12;;;;;;;14.87;4.43;;;20.70;99.90;;;;;;7292131;19;20596;-90
2023/10/06 09:08:44;;;;;;;11.93;3.70;;;20.90;99.90;;;;;;7312966;19;20190;-89
2023/10/06 09:11:10;;;;;;;13.93;4.40;;;20.90;99.90;;;;;;7291780;19;20191;-89
2023/10/06 09:13:37;;;;;;;15.43;4.00;;;21.20;99.90;;;;;;7335493;19;20191;-89
2023/10/06 09:16:08;;;;;;;16.20;3.97;;;21.30;99.90;;;;;;7292052;19;20203;-89
2023/10/06 09:18:35;;;;;;;13.17;3.83;;;21.50;99.90;;;;;;7291070;19;20194;-89
2023/10/06 09:21:19;;;;;;;12.10;3.90;;;21.60;99.90;;;;;;7290885;19;20205;-89
2023/10/06 09:23:46;;;;;;;13.40;3.97;;;21.60;99.90;;;;;;7291598;19;20200;-89
2023/10/06 09:26:17;;;;;;;13.90;4.07;;;21.60;99.90;;;;;;7314779;19;20182;-89
2023/10/06 09:28:55;;;;;;;16.87;3.80;;;21.80;99.90;;;;;;7287417;19;20188;-89
2023/10/06 09:31:38;;;;;;;13.17;3.73;;;21.90;99.90;;;;;;7291116;19;20615;-90
2023/10/06 09:34:07;;;;;;;13.53;3.90;;;22.00;99.90;;;;;;7318637;19;20231;-88
2023/10/06 09:36:36;;;;;;;14.73;4.23;;;22.10;99.90;;;;;;7295538;19;20192;-89
2023/10/06 09:39:20;;;;;;;12.20;4.00;;;22.10;99.90;;;;;;7291638;19;20185;-90
2023/10/06 09:41:47;;;;;;;14.23;4.30;;;22.20;99.90;;;;;;7187840;19;2004406;-89
2023/10/06 09:44:17;;;;;;;13.87;4.37;;;22.40;99.90;;;;;;7290465;19;20212;-90
2023/10/06 09:46:43;;;;;;;15.07;4.37;;;22.80;99.90;;;;;;7291758;19;20192;-90
2023/10/06 09:49:15;;;;;;;14.37;3.60;;;23.30;99.90;;;;;;7313060;19;20189;-89
2023/10/06 09:51:42;;;;;;;14.30;4.07;;;24.80;99.90;;;;;;7279993;19;20184;-90
2023/10/06 09:54:09;;;;;;;12.23;3.28;;;26.70;99.90;;;;;;7311568;19;20226;-88
2023/10/06 09:56:36;;;;;;;12.85;3.65;;;27.90;99.90;;;;;;7289178;19;20212;-89
2023/10/06 09:59:07;;;;;;;16.15;3.47;;;28.60;99.90;;;;;;7291928;19;20193;-90
2023/10/06 10:01:35;;;;;;;12.10;4.00;;;27.70;99.90;;;;;;7290780;19;20540;-90
2023/10/06 10:04:01;;;;;;;10.43;4.00;;;26.60;99.90;;;;;;7290368;19;20739;-89
2023/10/06 10:06:28;;;;;;;10.55;3.80;;;26.60;99.90;;;;;;7290585;19;20187;-88
2023/10/06 10:08:55;;;;;;;13.02;3.78;;;26.70;99.90;;;;;;7292461;19;20226;-87
2023/10/06 10:11:39;;;;;;;13.35;4.00;;;26.10;99.90;;;;;;7290779;19;20193;-88
2023/10/06 10:14:28;;;;;;;12.98;4.00;;;25.40;99.90;;;;;;7290432;19;20261;-90
2023/10/06 10:17:08;;;;;;;11.60;3.60;;;25.00;99.90;;;;;;7188470;19;2004744;-89
2023/10/06 10:19:36;;;;;;;12.33;3.30;;;25.20;99.90;;;;;;7290024;19;20181;-89
2023/10/06 10:22:03;;;;;;;11.30;3.70;;;24.80;99.90;;;;;;7291290;19;20201;-89
2023/10/06 10:24:31;;;;;;;13.85;3.95;;;25.00;99.90;;;;;;7289423;19;20207;-89
2023/10/06 10:26:59;;;;;;;11.73;3.55;;;25.50;99.90;;;;;;7290314;19;20203;-89
2023/10/06 10:29:25;;;;;;;11.23;3.53;;;25.70;99.90;;;;;;7290264;19;20257;-89
2023/10/06 10:32:13;;;;;;;12.70;3.33;;;25.30;99.90;;;;;;7289414;19;20209;-90
2023/10/06 10:35:08;;;;;;;10.32;2.97;;;25.70;99.90;;;;;;7289941;19;20188;-89
2023/10/06 10:37:52;;;;;;;11.23;3.30;;;26.50;99.90;;;;;;7189834;19;2004344;-89
2023/10/06 10:40:23;;;;;;;11.55;3.20;;;26.90;99.90;;;;;;7186626;19;2004451;-90
2023/10/06 10:43:05;;;;;;;15.07;3.20;;;26.90;99.90;;;;;;7289211;19;20185;-89
2023/10/06 10:45:38;;;;;;;11.25;3.03;;;26.80;99.90;;;;;;7289127;19;20198;-90
2023/10/06 10:48:14;;;;;;;10.43;2.72;;;27.10;99.90;;;;;;7289737;19;20192;-89
2023/10/06 10:51:10;;;;;;;12.60;2.97;;;26.90;99.90;;;;;;7289966;19;20188;-89
2023/10/06 10:53:45;;;;;;;10.70;2.75;;;27.10;99.90;;;;;;7186600;19;2006045;-88
2023/10/06 10:56:36;;;;;;;11.43;2.92;;;27.00;99.90;;;;;;7286161;19;20209;-90
2023/10/06 10:59:03;;;;;;;11.65;3.05;;;26.70;99.90;;;;;;7287241;19;20206;-90
2023/10/06 11:01:31;;;;;;;9.15;2.90;;;26.60;99.90;;;;;;7289283;19;20193;-89
2023/10/06 11:04:21;;;;;;;13.10;3.30;;;26.60;99.90;;;;;;7288317;19;20216;-90
2023/10/06 11:06:49;;;;;;;10.80;2.90;;;26.40;99.90;;;;;;7187300;19;2004582;-90
2023/10/06 11:09:39;;;;;;;9.85;3.10;;;26.10;99.90;;;;;;7289240;19;20189;-90
2023/10/06 11:12:20;;;;;;;11.60;2.80;;;26.30;99.90;;;;;;7288937;19;20193;-90
2023/10/06 11:14:46;;;;;;;13.20;3.20;;;26.30;99.90;;;;;;7186550;19;2004506;-89
2023/10/06 11:17:12;;;;;;;8.80;2.90;;;26.00;99.90;;;;;;7300005;19;20189;-89
2023/10/06 11:19:40;;;;;;;13.25;3.08;;;26.00;99.90;;;;;;7313850;19;20212;-90
2023/10/06 11:22:09;;;;;;;13.48;3.13;;;25.90;99.90;;;;;;7290091;19;20185;-90
2023/10/06 11:24:35;;;;;;;13.73;3.03;;;25.90;99.90;;;;;;7288688;19;20197;-90
2023/10/06 11:27:22;;;;;;;11.68;3.00;;;26.00;99.90;;;;;;7288614;19;20210;-89
2023/10/06 11:29:57;;;;;;;10.63;3.00;;;25.60;99.90;;;;;;7177688;19;2004395;-89
2023/10/06 11:32:23;;;;;;;14.05;3.25;;;25.40;99.90;;;;;;7288233;19;20216;-89
2023/10/06 11:34:52;;;;;;;12.10;3.00;;;25.20;99.90;;;;;;7286519;19;20185;-89
2023/10/06 11:37:24;;;;;;;12.75;3.10;;;25.20;99.90;;;;;;7289229;19;20189;-90
2023/10/06 11:39:53;;;;;;;10.73;3.30;;;25.30;99.90;;;;;;7288306;19;20582;-89
2023/10/06 11:42:27;;;;;;;10.13;3.17;;;25.40;99.90;;;;;;7288565;19;20507;-90
2023/10/06 11:44:54;;;;;;;9.68;2.55;;;25.90;99.90;;;;;;7288405;19;20201;-90
2023/10/06 11:47:24;;;;;;;8.85;2.78;;;26.10;99.90;;;;;;7287837;19;20184;-90
2023/10/06 11:49:54;;;;;;;11.57;3.20;;;26.30;99.90;;;;;;7289006;19;20210;-88
2023/10/06 11:52:20;;;;;;;10.73;2.78;;;26.20;99.90;;;;;;7291792;19;20595;-89
2023/10/06 11:54:49;;;;;;;11.55;3.33;;;26.00;99.90;;;;;;7295378;19;20211;-88
2023/10/06 11:57:15;;;;;;;14.13;3.58;;;25.80;99.90;;;;;;7295606;19;20266;-88
2023/10/06 11:59:51;;;;;;;12.23;3.38;;;25.70;99.90;;;;;;7312107;19;20184;-88
2023/10/06 12:02:19;;;;;;;12.02;2.92;;;25.70;99.90;;;;;;7295089;19;20188;-88
2023/10/06 12:04:45;;;;;;;12.07;2.90;;;26.00;99.90;;;;;;7294257;19;20300;-89
2023/10/06 12:07:21;;;;;;;11.82;3.25;;;26.30;99.90;;;;;;7315646;19;20196;-89
2023/10/06 12:09:48;;;;;;;11.93;3.20;;;26.30;99.90;;;;;;7190705;19;2004609;-88
2023/10/06 12:12:17;;;;;;;8.88;3.00;;;26.10;99.90;;;;;;7294107;19;20188;-89
2023/10/06 12:14:44;;;;;;;11.75;3.08;;;26.30;99.90;;;;;;7293304;19;20184;-89
2023/10/06 12:17:14;;;;;;;13.60;3.22;;;26.60;99.90;;;;;;7316134;19;20192;-90
2023/10/06 12:19:44;;;;;;;9.93;3.20;;;27.40;99.90;;;;;;7293632;19;20195;-90
2023/10/06 12:22:10;;;;;;;10.48;2.78;;;27.60;99.90;;;;;;7293364;19;20681;-90
2023/10/06 12:24:36;;;;;;;12.60;3.30;;;28.50;99.90;;;;;;7294656;19;20215;-90
2023/10/06 12:27:02;;;;;;;10.15;3.30;;;28.60;99.90;;;;;;7295016;19;20245;-89
2023/10/06 12:29:31;;;;;;;10.48;3.45;;;28.40;99.90;;;;;;7295140;19;20193;-89
2023/10/06 12:31:57;;;;;;;11.25;3.08;;;28.40;99.90;;;;;;7293187;19;20197;-90
2023/10/06 12:34:23;;;;;;;12.63;3.38;;;28.40;99.90;;;;;;7294748;19;20192;-89
2023/10/06 12:36:52;;;;;;;11.60;3.50;;;28.50;99.90;;;;;;7296240;19;20200;-90
2023/10/06 12:39:33;;;;;;;11.90;3.78;;;28.70;99.90;;;;;;7293300;19;20188;-90
2023/10/06 12:41:59;;;;;;;12.00;3.25;;;28.50;99.90;;;;;;7293283;19;20197;-90
2023/10/06 12:44:28;;;;;;;11.15;3.25;;;28.40;99.90;;;;;;7293031;19;20191;-90
2023/10/06 12:47:03;;;;;;;13.73;3.55;;;28.30;99.90;;;;;;7292414;19;20209;-90
2023/10/06 12:49:30;;;;;;;12.48;3.42;;;28.60;99.90;;;;;;7293206;19;20659;-89
2023/10/06 12:51:56;;;;;;;12.65;3.33;;;28.60;99.90;;;;;;7293448;19;20204;-90
2023/10/06 12:54:25;;;;;;;13.55;3.80;;;28.00;99.90;;;;;;7292879;19;20196;-90
2023/10/06 12:56:52;;;;;;;9.80;3.33;;;27.10;99.90;;;;;;7293027;19;20767;-89
2023/10/06 12:59:18;;;;;;;11.88;3.38;;;26.60;99.90;;;;;;7290813;19;20197;-89
2023/10/06 13:01:44;;;;;;;11.13;3.25;;;26.10;99.90;;;;;;7292317;19;20192;-88